Time;durP1;ratioP1;P1;durP2;ratioP2;P2;SDS_P1;SDS_P2;PMS_P1;PMS_P2;Temp;Humidity;BMP_temperature;BMP_pressure;BME280_temperature;BME280_humidity;BME280_pressure;Samples;Min_cycle;Max_cycle;Signal;HPM_P1;HPM_P2
2021/06/08 14:57:38;;;;;;;;;13.25;11.50;;;;;25.86;43.86;101926.94;5145248;27;46856;-75
2021/06/08 15:00:05;;;;;;;;;12.50;12.50;;;;;25.48;48.33;101914.44;5116542;27;47037;-76
2021/06/08 15:02:30;;;;;;;;;16.25;14.00;;;;;25.16;51.32;101922.78;5115488;27;47221;-77
2021/06/08 15:04:56;;;;;;;;;17.50;15.75;;;;;24.81;50.98;101915.31;5112047;27;48029;-84
2021/06/08 15:07:21;;;;;;;;;17.75;16.00;;;;;24.53;52.70;101914.41;5090255;27;46945;-86
2021/06/08 15:09:47;;;;;;;;;17.50;17.00;;;;;24.27;53.29;101916.94;5087957;27;47111;-85
2021/06/08 15:12:13;;;;;;;;;13.00;13.00;;;;;24.03;54.73;101914.88;5119193;27;46957;-84
2021/06/08 15:14:39;;;;;;;;;12.75;12.75;;;;;23.80;53.07;101902.94;5105213;27;46838;-84
2021/06/08 15:17:04;;;;;;;;;12.00;12.00;;;;;23.60;52.11;101909.47;5118803;27;46936;-84
2021/06/08 15:19:30;;;;;;;;;12.00;12.00;;;;;23.49;55.48;101911.91;5087704;27;46888;-84
2021/06/08 15:21:55;;;;;;;;;11.75;11.75;;;;;23.38;55.91;101904.56;5114077;27;46939;-86
2021/06/08 15:24:21;;;;;;;;;12.75;12.00;;;;;23.27;55.02;101897.22;5096078;27;48468;-80
2021/06/08 15:26:47;;;;;;;;;12.75;12.50;;;;;23.16;56.16;101907.66;5084321;27;47917;-82
2021/06/08 15:29:12;;;;;;;;;12.50;12.50;;;;;23.00;54.66;101899.69;5080907;27;47054;-83
2021/06/08 15:31:38;;;;;;;;;13.25;13.00;;;;;22.88;55.04;101895.06;5084116;27;47380;-86
2021/06/08 15:34:07;;;;;;;;;11.25;11.25;;;;;22.89;55.93;101900.28;5084217;27;49504;-82
2021/06/08 15:36:33;;;;;;;;;13.75;13.00;;;;;22.79;56.16;101888.47;5136051;27;47169;-81
2021/06/08 15:39:00;;;;;;;;;15.25;13.25;;;;;22.70;54.44;101886.34;5118344;27;46990;-85
2021/06/08 15:41:25;;;;;;;;;15.75;15.25;;;;;22.64;58.00;101888.38;5117229;27;47070;-86
2021/06/08 15:43:51;;;;;;;;;13.25;12.25;;;;;22.64;57.80;101883.06;5113515;27;48219;-85
2021/06/08 15:46:16;;;;;;;;;16.25;14.25;;;;;22.63;57.49;101897.31;5116105;27;46974;-86
2021/06/08 15:48:42;;;;;;;;;11.25;11.25;;;;;22.59;58.18;101889.59;5111395;27;46973;-87
2021/06/08 15:51:08;;;;;;;;;15.00;13.50;;;;;22.58;58.28;101890.56;5107891;27;46901;-86
2021/06/08 15:53:33;;;;;;;;;11.75;11.75;;;;;22.57;59.64;101886.16;5114743;27;47192;-86
2021/06/08 15:55:59;;;;;;;;;10.50;10.00;;;;;22.65;58.70;101897.25;5104024;27;46984;-88
2021/06/08 15:58:24;;;;;;;;;14.50;13.50;;;;;22.59;54.75;101889.59;5111415;27;46884;-87
2021/06/08 16:00:50;;;;;;;;;14.00;10.00;;;;;22.67;54.96;101901.50;5095679;27;46965;-88
2021/06/08 16:03:15;;;;;;;;;12.75;12.75;;;;;22.77;56.63;101882.38;5087120;27;48276;-81
2021/06/08 16:05:41;;;;;;;;;12.00;11.75;;;;;22.90;56.55;101885.19;5094900;27;46904;-84
2021/06/08 16:08:07;;;;;;;;;14.00;13.50;;;;;22.89;56.90;101891.47;5086744;27;47140;-85
2021/06/08 16:10:33;;;;;;;;;11.00;11.00;;;;;22.92;55.03;101897.44;5081763;27;47072;-85
2021/06/08 16:12:59;;;;;;;;;14.50;11.50;;;;;22.82;53.85;101888.28;5081523;27;48061;-85
2021/06/08 16:15:24;;;;;;;;;12.00;12.00;;;;;22.88;55.45;101895.06;5081267;27;47088;-85
2021/06/08 16:17:50;;;;;;;;;15.75;13.00;;;;;22.93;54.61;101895.66;5081481;27;46856;-85
2021/06/08 16:20:16;;;;;;;;;13.75;12.50;;;;;23.17;55.86;101886.28;5093697;27;46796;-85
2021/06/08 16:22:41;;;;;;;;;14.00;14.00;;;;;23.52;52.79;101882.44;5081024;27;48037;-85
2021/06/08 16:25:07;;;;;;;;;14.00;12.75;;;;;23.80;52.94;101881.63;5094560;27;46893;-86
2021/06/08 16:27:33;;;;;;;;;13.50;13.50;;;;;23.74;54.61;101883.78;5092063;27;46947;-85
2021/06/08 16:30:02;;;;;;;;;13.75;12.00;;;;;23.54;53.16;101896.53;5086754;27;46743;-85
2021/06/08 16:32:27;;;;;;;;;13.50;13.50;;;;;23.17;55.51;101872.09;5081230;27;48220;-85
2021/06/08 16:34:53;;;;;;;;;14.50;13.00;;;;;23.04;56.38;101890.53;5097857;27;47045;-85
2021/06/08 16:37:18;;;;;;;;;13.25;12.75;;;;;22.91;56.60;101889.56;5084178;27;47079;-85
2021/06/08 16:39:44;;;;;;;;;13.75;11.00;;;;;22.83;58.75;101882.03;5097711;27;47009;-85
2021/06/08 16:42:10;;;;;;;;;13.75;12.25;;;;;22.72;58.30;101882.66;5090278;27;47036;-85
2021/06/08 16:44:36;;;;;;;;;12.00;12.00;;;;;22.74;58.06;101893.19;5087722;27;46833;-85
2021/06/08 16:47:02;;;;;;;;;14.50;14.00;;;;;22.65;56.37;101873.31;5086344;27;46977;-85
2021/06/08 16:49:27;;;;;;;;;14.00;14.00;;;;;22.68;56.93;101865.16;5101821;27;46903;-85
2021/06/08 16:54:24;;;;;;;;;11.25;11.25;;;;;22.70;53.98;101881.88;5100137;27;47061;-87
2021/06/08 16:56:50;;;;;;;;;13.75;12.25;;;;;22.69;57.73;101871.31;5114998;27;47173;-84
2021/06/08 16:59:16;;;;;;;;;14.50;14.50;;;;;22.63;58.37;101876.06;5122103;27;47180;-84
2021/06/08 17:01:42;;;;;;;;;12.00;12.00;;;;;22.60;55.63;101881.53;5121724;27;46913;-85
2021/06/08 17:04:08;;;;;;;;;15.50;14.50;;;;;22.52;58.92;101875.78;5121683;27;46892;-88
2021/06/08 17:06:33;;;;;;;;;12.25;11.25;;;;;22.40;60.38;101880.00;5083956;27;48305;-87
2021/06/08 17:08:59;;;;;;;;;18.00;17.75;;;;;22.27;59.38;101868.31;5095266;27;46925;-87
2021/06/08 17:11:24;;;;;;;;;17.00;14.25;;;;;22.16;58.79;101866.22;5066800;27;47100;-87
2021/06/08 17:13:50;;;;;;;;;16.50;15.25;;;;;22.07;59.53;101874.72;5113230;27;47044;-86
2021/06/08 17:16:15;;;;;;;;;13.00;12.25;;;;;22.07;61.08;101875.56;5114396;27;46981;-87
2021/06/08 17:18:41;;;;;;;;;13.75;13.25;;;;;22.03;61.99;101866.03;5089737;27;46940;-85
2021/06/08 17:21:06;;;;;;;;;12.75;11.00;;;;;22.04;62.66;101864.25;5106968;27;47980;-84
2021/06/08 17:23:32;;;;;;;;;17.75;15.50;;;;;22.14;61.82;101868.13;5112025;27;47050;-82
2021/06/08 17:25:58;;;;;;;;;13.00;13.00;;;;;22.15;62.33;101864.50;5114865;27;47001;-83
2021/06/08 17:28:24;;;;;;;;;15.00;13.25;;;;;22.28;62.90;101875.31;5111496;27;47049;-83
2021/06/08 17:30:50;;;;;;;;;13.25;13.25;;;;;22.40;62.63;101873.81;5129062;27;48136;-83
2021/06/08 17:33:16;;;;;;;;;11.50;10.00;;;;;22.44;59.75;101872.69;5109201;27;47232;-82
2021/06/08 17:35:49;;;;;;;;;15.75;12.00;;;;;22.48;61.78;101871.59;5113485;27;47167;-82
2021/06/08 17:38:14;;;;;;;;;14.50;14.50;;;;;22.54;61.88;101881.88;5111212;27;47163;-80
2021/06/08 17:40:42;;;;;;;;;15.25;13.50;;;;;22.48;62.07;101866.28;5097356;27;47199;-84
2021/06/08 17:43:08;;;;;;;;;16.25;15.75;;;;;22.48;62.37;101866.28;5113807;27;46827;-83
2021/06/08 17:45:34;;;;;;;;;11.75;11.75;;;;;22.51;61.49;101876.72;5108915;27;47077;-84
2021/06/08 17:47:59;;;;;;;;;14.75;14.00;;;;;22.48;62.59;101860.97;5106504;27;46975;-82
2021/06/08 17:50:25;;;;;;;;;14.25;12.25;;;;;22.62;62.15;101879.66;5089652;27;49170;-83
2021/06/08 17:52:51;;;;;;;;;14.75;13.25;;;;;22.62;62.51;101876.16;5104990;27;47350;-83
2021/06/08 17:55:18;;;;;;;;;13.00;12.00;;;;;22.66;62.75;101878.53;5087672;27;47107;-82
2021/06/08 17:57:43;;;;;;;;;13.00;11.75;;;;;22.58;62.51;101878.09;5101661;27;47352;-82
2021/06/08 18:00:10;;;;;;;;;12.25;12.00;;;;;22.51;62.38;101873.22;5100987;27;47113;-82
2021/06/08 18:02:37;;;;;;;;;15.00;14.75;;;;;22.40;63.22;101872.03;5113365;27;47079;-83
2021/06/08 18:05:04;;;;;;;;;12.25;12.25;;;;;22.33;62.94;101877.75;5103805;27;47014;-82
2021/06/08 18:07:29;;;;;;;;;13.00;13.00;;;;;22.24;62.85;101879.09;5099783;27;47082;-82
2021/06/08 18:09:56;;;;;;;;;12.50;12.50;;;;;22.21;63.95;101882.78;5100730;27;47007;-81
2021/06/08 18:12:22;;;;;;;;;14.25;13.25;;;;;22.14;65.24;101879.59;5117565;27;47240;-81
2021/06/08 18:14:47;;;;;;;;;11.50;11.00;;;;;22.14;63.84;101882.25;5119500;27;47143;-81
2021/06/08 18:17:13;;;;;;;;;11.00;9.25;;;;;22.04;63.21;101875.72;5105734;27;47128;-81
2021/06/08 18:19:45;;;;;;;;;13.75;11.25;;;;;22.11;61.41;101892.22;5108185;27;47170;-77
2021/06/08 18:22:11;;;;;;;;;13.75;13.00;;;;;22.03;61.64;101891.75;5093802;27;47307;-80
2021/06/08 18:24:37;;;;;;;;;13.50;13.50;;;;;21.96;60.20;101892.09;5091049;27;47271;-78
2021/06/08 18:27:04;;;;;;;;;13.00;13.00;;;;;21.99;62.28;101898.16;5091759;27;47032;-79
2021/06/08 18:29:30;;;;;;;;;12.50;11.50;;;;;21.87;62.63;101892.56;5090073;27;49589;-80
2021/06/08 18:31:56;;;;;;;;;17.25;14.50;;;;;21.84;62.20;101894.53;5108975;27;46807;-80
2021/06/08 18:34:22;;;;;;;;;13.25;13.25;;;;;21.79;62.41;101892.13;5100403;27;48155;-81
2021/06/08 18:36:50;;;;;;;;;12.50;10.50;;;;;21.73;63.66;101906.56;5100713;27;47275;-80
2021/06/08 18:39:18;;;;;;;;;15.50;13.25;;;;;21.63;62.06;101902.69;5091227;27;47847;-79
2021/06/08 18:41:44;;;;;;;;;16.50;13.50;;;;;21.60;58.57;101910.81;5114703;27;47141;-81
2021/06/08 18:44:09;;;;;;;;;14.75;14.00;;;;;21.55;61.05;101900.44;5099254;27;46906;-80
2021/06/08 18:46:35;;;;;;;;;13.00;12.25;;;;;21.55;61.39;101916.38;5116365;27;47061;-82
2021/06/08 18:49:01;;;;;;;;;12.75;12.50;;;;;21.43;59.10;101909.84;5095712;27;46873;-83
2021/06/08 18:51:28;;;;;;;;;11.50;10.00;;;;;21.39;60.12;101900.34;5112576;27;47010;-83
2021/06/08 18:53:54;;;;;;;;;11.50;11.50;;;;;21.43;62.31;101914.28;5099823;27;47058;-84
2021/06/08 18:56:20;;;;;;;;;12.25;12.25;;;;;21.35;57.01;101908.50;5105376;27;46872;-83
2021/06/08 18:58:47;;;;;;;;;10.75;10.00;;;;;21.39;59.31;101926.00;5108431;27;47032;-82
2021/06/08 19:01:13;;;;;;;;;16.50;11.75;;;;;21.22;62.48;101895.88;5078494;27;47061;-81
2021/06/08 19:03:39;;;;;;;;;12.25;12.25;;;;;21.26;64.02;101929.28;5088790;27;47063;-79
2021/06/08 19:06:05;;;;;;;;;11.50;10.50;;;;;21.07;63.98;101912.53;5080797;27;46924;-79
2021/06/08 19:08:31;;;;;;;;;13.25;13.25;;;;;21.01;65.36;101915.50;5079422;27;47957;-79
2021/06/08 19:10:56;;;;;;;;;12.50;12.50;;;;;20.91;65.42;101918.63;5076629;27;47050;-80
2021/06/08 19:13:22;;;;;;;;;12.25;11.50;;;;;20.84;63.86;101917.19;5072772;27;47001;-80
2021/06/08 19:15:48;;;;;;;;;14.50;12.50;;;;;20.72;62.42;101910.69;5099509;27;46920;-80
2021/06/08 19:18:14;;;;;;;;;12.50;9.75;;;;;20.73;61.44;101911.53;5083960;27;46948;-80
2021/06/08 19:20:41;;;;;;;;;11.25;11.25;;;;;20.66;63.70;101908.34;5098033;27;47104;-79
2021/06/08 19:23:07;;;;;;;;;12.25;12.25;;;;;20.67;62.61;101911.84;5118545;27;47140;-81
2021/06/08 19:25:33;;;;;;;;;14.25;13.50;;;;;20.62;63.16;101924.41;5093451;27;47319;-79
2021/06/08 19:27:58;;;;;;;;;12.50;12.50;;;;;20.51;64.67;101907.22;5110446;27;47944;-82
2021/06/08 19:30:24;;;;;;;;;13.75;12.25;;;;;20.48;62.15;101909.19;5083304;27;46964;-81
2021/06/08 19:32:50;;;;;;;;;12.00;11.50;;;;;20.39;65.40;101902.53;5098177;27;47218;-81
2021/06/08 19:35:15;;;;;;;;;13.00;12.00;;;;;20.30;62.79;101902.97;5105812;27;47194;-81
2021/06/08 19:37:41;;;;;;;;;11.50;11.25;;;;;20.25;62.19;101910.25;5106217;27;47192;-82
2021/06/08 19:40:07;;;;;;;;;13.50;12.50;;;;;20.18;64.68;101912.28;5109716;27;46975;-81
2021/06/08 19:42:33;;;;;;;;;16.75;14.75;;;;;20.03;64.76;101909.44;5099928;27;46975;-82
2021/06/08 19:44:58;;;;;;;;;13.00;10.75;;;;;19.94;65.15;101909.84;5108379;27;46820;-82
2021/06/08 19:47:24;;;;;;;;;12.25;11.50;;;;;19.85;66.92;101916.41;5120609;27;47892;-82
2021/06/08 19:49:52;;;;;;;;;13.50;13.00;;;;;19.79;64.04;101911.38;5105136;27;46859;-82
2021/06/08 19:52:18;;;;;;;;;14.50;14.25;;;;;19.74;66.23;101910.69;5109841;27;47278;-82
2021/06/08 19:54:44;;;;;;;;;14.75;12.75;;;;;19.67;66.52;101920.69;5105383;27;47215;-82
2021/06/08 19:57:10;;;;;;;;;13.25;12.25;;;;;19.58;65.18;101912.28;5116092;27;47129;-82
2021/06/08 19:59:36;;;;;;;;;14.75;14.75;;;;;19.52;67.24;101921.34;5107933;27;47155;-83
2021/06/08 20:02:02;;;;;;;;;13.00;12.75;;;;;19.48;63.45;101927.72;5102093;27;47045;-82
2021/06/08 20:04:27;;;;;;;;;14.00;13.75;;;;;19.51;67.05;101935.50;5102226;27;47256;-82
2021/06/08 20:06:53;;;;;;;;;18.50;16.75;;;;;19.43;65.59;101935.81;5101685;27;47080;-80
2021/06/08 20:09:18;;;;;;;;;13.00;11.75;;;;;19.41;64.93;101945.59;5104312;27;47148;-82
2021/06/08 20:11:44;;;;;;;;;12.25;12.00;;;;;19.34;65.39;101944.16;5116853;27;47202;-82
2021/06/08 20:14:10;;;;;;;;;19.75;15.50;;;;;19.35;65.41;101948.53;5119436;27;46849;-83
2021/06/08 20:16:36;;;;;;;;;15.00;13.25;;;;;19.36;67.13;101950.22;5111384;27;47112;-82
2021/06/08 20:19:03;;;;;;;;;15.75;14.00;;;;;19.19;68.44;101938.56;5116865;27;47117;-82
2021/06/08 20:21:29;;;;;;;;;11.50;11.50;;;;;19.15;69.13;101947.53;5108847;27;47104;-82
2021/06/08 20:23:56;;;;;;;;;13.25;11.75;;;;;19.10;69.65;101959.22;5115376;27;47011;-82
2021/06/08 20:26:22;;;;;;;;;14.50;13.25;;;;;19.00;69.52;101959.59;5118334;27;47260;-82
2021/06/08 20:28:48;;;;;;;;;14.50;13.50;;;;;18.95;70.13;101965.97;5118902;27;46931;-82
2021/06/08 20:31:15;;;;;;;;;14.75;14.50;;;;;18.87;70.52;101968.09;5103024;27;47120;-82
2021/06/08 20:33:40;;;;;;;;;14.50;12.25;;;;;18.77;70.44;101959.63;5101614;27;47352;-82
2021/06/08 20:36:06;;;;;;;;;15.25;14.25;;;;;18.72;71.61;101970.38;5113087;27;47263;-82
2021/06/08 20:38:32;;;;;;;;;15.75;15.50;;;;;18.61;71.39;101968.13;5104726;27;47009;-83
2021/06/08 20:40:57;;;;;;;;;14.75;14.50;;;;;18.55;71.52;101968.34;5111893;27;47167;-82
2021/06/08 20:43:23;;;;;;;;;15.50;15.25;;;;;18.47;71.97;101970.41;5104133;27;47095;-83
2021/06/08 20:45:51;;;;;;;;;19.00;18.25;;;;;18.38;72.02;101966.34;5104271;27;47142;-83
2021/06/08 20:48:18;;;;;;;;;22.50;22.25;;;;;18.35;71.88;101977.00;5107390;27;47346;-82
2021/06/08 20:50:44;;;;;;;;;21.00;19.50;;;;;18.31;72.00;101980.69;5103058;27;46833;-82
2021/06/08 20:53:09;;;;;;;;;17.25;17.25;;;;;18.22;72.23;101965.19;5115097;27;47098;-82
2021/06/08 20:55:35;;;;;;;;;22.00;19.75;;;;;18.15;72.98;101964.56;5127477;27;47186;-82
2021/06/08 20:58:00;;;;;;;;;19.25;18.50;;;;;18.11;73.50;101969.06;5121305;27;47180;-82
2021/06/08 21:00:27;;;;;;;;;17.25;16.25;;;;;18.08;73.72;101969.19;5103047;27;47036;-82
2021/06/08 21:02:52;;;;;;;;;16.25;16.25;;;;;18.06;74.47;101976.31;5110177;27;46970;-82
2021/06/08 21:05:18;;;;;;;;;17.50;15.75;;;;;18.02;74.12;101974.69;5114081;27;46980;-81
2021/06/08 21:07:44;;;;;;;;;16.50;16.50;;;;;17.94;73.85;101976.72;5114123;27;47349;-82
2021/06/08 21:10:10;;;;;;;;;20.75;17.25;;;;;17.99;74.08;101987.13;5087174;27;46937;-79
2021/06/08 21:12:35;;;;;;;;;19.75;18.75;;;;;17.91;74.67;101984.75;5098291;27;47002;-79
2021/06/08 21:15:03;;;;;;;;;15.50;15.50;;;;;17.91;74.40;101998.81;5112051;27;46962;-78
2021/06/08 21:17:28;;;;;;;;;19.75;19.25;;;;;17.84;73.67;101991.13;5096909;27;47018;-79
2021/06/08 21:19:54;;;;;;;;;18.50;18.50;;;;;17.79;74.42;101984.22;5102105;27;46884;-78
2021/06/08 21:22:20;;;;;;;;;19.75;19.25;;;;;17.78;73.78;101995.72;5101458;27;47052;-79
2021/06/08 21:24:46;;;;;;;;;17.75;17.50;;;;;17.67;74.62;101984.66;5109796;27;47129;-81
2021/06/08 21:27:11;;;;;;;;;19.25;19.25;;;;;17.65;74.05;101991.75;5102145;27;47067;-80
2021/06/08 21:29:37;;;;;;;;;18.00;18.00;;;;;17.66;74.45;101995.25;5103518;27;47036;-82
2021/06/08 21:32:03;;;;;;;;;17.00;16.75;;;;;17.57;74.63;101989.38;5103028;27;47265;-80
2021/06/08 21:34:28;;;;;;;;;18.00;18.00;;;;;17.58;75.13;101993.75;5104804;27;48238;-81
2021/06/08 21:36:54;;;;;;;;;21.25;20.75;;;;;17.49;74.94;101985.25;5107427;27;47104;-81
2021/06/08 21:39:20;;;;;;;;;18.75;17.00;;;;;17.49;74.79;101983.47;5109785;27;46978;-80
2021/06/08 21:41:46;;;;;;;;;22.00;21.50;;;;;17.43;75.44;101984.56;5104875;27;47237;-81
2021/06/08 21:44:13;;;;;;;;;20.00;19.50;;;;;17.45;75.76;101998.56;5090997;27;48589;-80
2021/06/08 21:46:39;;;;;;;;;19.00;14.50;;;;;17.48;71.54;101999.34;5113785;27;47120;-81
2021/06/08 21:49:05;;;;;;;;;17.50;17.25;;;;;17.44;72.35;101981.00;5103986;27;47034;-80
2021/06/08 21:51:31;;;;;;;;;17.25;16.25;;;;;17.53;70.31;101985.09;5094700;27;47033;-81
2021/06/08 21:53:57;;;;;;;;;19.50;17.75;;;;;17.60;71.66;101989.25;5114600;27;47016;-81
2021/06/08 21:56:22;;;;;;;;;17.00;16.00;;;;;17.64;70.36;101984.75;5118386;27;47384;-80
2021/06/08 21:58:48;;;;;;;;;17.50;15.00;;;;;17.67;72.48;101997.84;5100380;27;47101;-80
2021/06/08 22:03:13;;;;;;;;;13.25;13.25;;;;;17.70;73.08;102010.09;5020119;27;46926;-83
2021/06/08 22:05:38;;;;;;;;;15.75;14.75;;;;;17.66;70.14;102000.53;4972055;28;46790;-83
2021/06/08 22:08:04;;;;;;;;;14.50;13.50;;;;;17.69;70.96;102006.56;4972451;28;47045;-83
2021/06/08 22:10:30;;;;;;;;;13.25;13.25;;;;;17.80;70.94;102017.63;4971739;28;47010;-83
2021/06/08 22:12:56;;;;;;;;;17.00;14.75;;;;;17.76;71.91;102004.59;4967208;28;47214;-84
2021/06/08 22:15:22;;;;;;;;;15.25;13.75;;;;;17.77;70.20;102011.56;4967088;28;46981;-84
2021/06/08 22:17:48;;;;;;;;;12.00;12.00;;;;;17.70;70.83;102008.28;4972676;28;47034;-84
2021/06/08 22:20:14;;;;;;;;;15.25;14.00;;;;;17.67;71.26;102000.47;4969943;28;47858;-84
2021/06/08 22:22:41;;;;;;;;;16.00;14.00;;;;;17.65;72.25;102002.28;4972086;28;47250;-84
2021/06/08 22:25:08;;;;;;;;;14.50;14.00;;;;;17.61;73.16;102005.97;4968207;28;47163;-84
2021/06/08 22:27:34;;;;;;;;;14.50;12.00;;;;;17.60;72.64;102010.38;4972682;28;47008;-84
2021/06/08 22:30:00;;;;;;;;;14.75;14.00;;;;;17.55;72.96;102004.41;4970817;28;48062;-84
2021/06/08 22:32:25;;;;;;;;;11.00;11.00;;;;;17.50;73.46;102011.59;4963690;28;46902;-84
2021/06/08 22:34:52;;;;;;;;;11.50;11.50;;;;;17.43;72.02;102003.03;4972271;28;47010;-83
2021/06/08 22:37:17;;;;;;;;;12.00;12.00;;;;;17.45;73.56;102011.75;4995452;28;47142;-83
2021/06/08 22:39:44;;;;;;;;;17.00;14.00;;;;;17.38;73.60;102004.09;4970706;28;49626;-84
2021/06/08 22:42:10;;;;;;;;;11.50;11.25;;;;;17.38;73.96;102009.34;4969985;28;47017;-84
2021/06/08 22:44:36;;;;;;;;;11.25;11.25;;;;;17.29;73.55;102005.25;4971933;28;46967;-84
2021/06/08 22:47:02;;;;;;;;;11.25;11.25;;;;;17.29;73.64;102002.59;4971056;28;46990;-83
2021/06/08 22:49:27;;;;;;;;;9.00;9.00;;;;;17.27;72.78;102010.56;4971595;28;47876;-83
2021/06/08 22:51:53;;;;;;;;;12.50;12.25;;;;;17.21;73.67;101999.34;4958872;28;46846;-83
2021/06/08 22:54:18;;;;;;;;;9.00;9.00;;;;;17.24;74.25;102005.38;4972222;28;46843;-83
2021/06/08 22:56:46;;;;;;;;;10.75;9.50;;;;;17.19;74.13;101996.75;4972264;28;46799;-83
2021/06/08 22:59:11;;;;;;;;;15.50;13.00;;;;;17.15;73.96;101997.75;4970703;28;47384;-83
2021/06/08 23:01:38;;;;;;;;;13.00;11.00;;;;;17.10;74.09;101995.25;4971698;28;47054;-83
2021/06/08 23:04:06;;;;;;;;;12.50;11.00;;;;;17.10;74.54;102005.81;4971751;28;47098;-83
2021/06/08 23:06:32;;;;;;;;;8.50;8.50;;;;;17.06;75.25;102003.31;4971538;28;47191;-83
2021/06/08 23:08:58;;;;;;;;;11.25;10.75;;;;;16.95;74.42;101994.88;4971596;28;46883;-83
2021/06/08 23:11:23;;;;;;;;;11.50;10.00;;;;;16.96;74.31;102004.50;4970595;28;46991;-83
2021/06/08 23:13:49;;;;;;;;;10.75;10.75;;;;;16.93;75.18;102014.22;4963015;28;46818;-83
2021/06/08 23:16:15;;;;;;;;;10.75;10.75;;;;;16.82;75.73;101994.34;4958561;28;47258;-83
2021/06/08 23:18:40;;;;;;;;;11.00;10.50;;;;;16.78;74.43;101993.59;4958601;28;47855;-83
2021/06/08 23:21:06;;;;;;;;;13.50;10.50;;;;;16.78;75.07;102001.50;4958080;28;46992;-83
2021/06/08 23:23:33;;;;;;;;;11.50;11.25;;;;;16.79;75.30;102013.72;4958798;28;47123;-83
2021/06/08 23:26:01;;;;;;;;;11.00;11.00;;;;;16.70;74.70;101995.56;4954056;28;46938;-83
2021/06/08 23:28:27;;;;;;;;;12.50;11.25;;;;;16.71;75.27;102002.56;4957235;28;49961;-82
2021/06/08 23:30:52;;;;;;;;;10.00;9.00;;;;;16.70;75.09;102000.84;4957648;28;47078;-83
2021/06/08 23:33:18;;;;;;;;;9.75;9.75;;;;;16.72;74.73;102013.06;4946674;28;47138;-83
2021/06/08 23:35:43;;;;;;;;;10.00;9.50;;;;;16.65;74.79;102008.03;4975280;28;46894;-83
2021/06/08 23:38:09;;;;;;;;;12.50;9.00;;;;;16.62;74.51;102006.34;4969628;28;47549;-83
2021/06/08 23:40:34;;;;;;;;;9.50;8.25;;;;;16.59;74.86;101998.53;4958570;28;46962;-82
2021/06/08 23:43:00;;;;;;;;;11.25;9.75;;;;;16.57;75.49;102008.22;4958216;28;47096;-82
2021/06/08 23:45:25;;;;;;;;;10.50;9.50;;;;;16.48;74.84;101996.19;4958598;28;47048;-82
2021/06/08 23:47:51;;;;;;;;;13.25;10.00;;;;;16.47;76.16;101998.88;4958092;28;47079;-83
2021/06/08 23:50:17;;;;;;;;;11.00;10.00;;;;;16.44;75.25;101991.06;4957931;28;46936;-84
2021/06/08 23:52:42;;;;;;;;;9.00;9.00;;;;;16.44;74.63;101999.84;4956311;28;47127;-83
2021/06/08 23:55:08;;;;;;;;;8.50;8.50;;;;;16.38;75.28;101992.97;4958653;28;47035;-83
2021/06/08 23:57:34;;;;;;;;;10.25;10.00;;;;;16.34;75.34;101991.31;4958213;28;47895;-83
